Time;durP1;ratioP1;P1;durP2;ratioP2;P2;SDS_P1;SDS_P2;PMS_P1;PMS_P2;Temp;Humidity;BMP_temperature;BMP_pressure;BME280_temperature;BME280_humidity;BME280_pressure;Samples;Min_cycle;Max_cycle;Signal;HPM_P1;HPM_P2
2023/07/11 00:01:32;;;;;;;1.33;1.10;;;20.60;99.90;;;21.04;100.00;101165.06;5201148;28;20041;-49
2023/07/11 00:04:05;;;;;;;1.58;1.20;;;20.50;99.90;;;21.03;100.00;101164.19;5201247;28;20507;-49
2023/07/11 00:06:39;;;;;;;1.58;1.10;;;20.50;99.90;;;20.98;100.00;101159.78;5201269;28;20046;-48
2023/07/11 00:09:11;;;;;;;1.13;1.02;;;20.50;99.90;;;20.97;100.00;101168.59;5200861;28;20046;-49
2023/07/11 00:11:44;;;;;;;2.78;1.40;;;20.50;99.90;;;20.94;100.00;101168.63;5201406;28;20045;-49
2023/07/11 00:14:16;;;;;;;2.95;1.63;;;20.40;99.90;;;20.88;100.00;101158.03;5200717;28;20456;-49
2023/07/11 00:16:52;;;;;;;3.60;1.70;;;20.40;99.90;;;20.85;100.00;101158.91;5200849;28;20041;-49
2023/07/11 00:19:24;;;;;;;5.05;1.90;;;20.40;99.90;;;20.82;100.00;101157.16;5200786;28;20057;-49
2023/07/11 00:21:58;;;;;;;2.85;1.77;;;20.40;99.90;;;20.85;100.00;101153.59;5200945;28;20057;-50
2023/07/11 00:24:31;;;;;;;3.33;1.75;;;20.40;99.90;;;20.82;100.00;101149.22;5201015;28;20052;-49
2023/07/11 00:27:06;;;;;;;2.78;1.90;;;20.40;99.90;;;20.80;100.00;101145.69;5200790;28;20045;-49
2023/07/11 00:29:39;;;;;;;3.47;1.55;;;20.30;99.90;;;20.81;100.00;101151.88;5202153;28;20041;-49
2023/07/11 00:32:13;;;;;;;4.03;1.77;;;20.30;99.90;;;20.80;100.00;101148.34;5200634;28;20087;-49
2023/07/11 00:34:46;;;;;;;3.00;1.38;;;20.30;99.90;;;20.77;100.00;101145.69;5202290;28;20041;-49
2023/07/11 00:37:20;;;;;;;2.45;1.42;;;20.30;99.90;;;20.75;100.00;101146.56;5201734;28;20041;-49
2023/07/11 00:39:52;;;;;;;2.65;1.40;;;20.30;99.90;;;20.72;100.00;101144.78;5200234;28;20528;-49
2023/07/11 00:42:25;;;;;;;1.80;1.30;;;20.30;99.90;;;20.69;100.00;101149.22;5196856;28;20053;-49
2023/07/11 00:45:01;;;;;;;2.47;1.50;;;20.20;99.90;;;20.65;100.00;101140.38;5197273;28;20056;-49
2023/07/11 00:47:33;;;;;;;2.58;1.33;;;20.20;99.90;;;20.59;100.00;101140.41;5200130;28;20046;-48
2023/07/11 00:50:09;;;;;;;3.63;1.58;;;20.10;99.90;;;20.53;100.00;101135.09;5200149;28;20057;-49
2023/07/11 00:52:43;;;;;;;1.40;1.25;;;20.10;99.90;;;20.47;100.00;101140.41;5200591;28;20041;-49
2023/07/11 00:55:16;;;;;;;1.85;1.25;;;20.00;99.90;;;20.44;100.00;101141.25;5200220;28;20056;-49
2023/07/11 00:57:49;;;;;;;2.28;1.75;;;20.00;99.90;;;20.39;100.00;101136.84;5200509;28;20414;-49
2023/07/11 01:00:22;;;;;;;1.88;1.33;;;19.90;99.90;;;20.36;100.00;101131.56;5193375;28;20048;-49
2023/07/11 01:02:54;;;;;;;2.17;1.23;;;19.90;99.90;;;20.32;100.00;101131.53;5200299;28;20045;-49
2023/07/11 01:05:27;;;;;;;2.75;1.33;;;19.90;99.90;;;20.28;100.00;101121.84;5200695;28;20049;-49
2023/07/11 01:08:00;;;;;;;3.08;1.40;;;19.80;99.90;;;20.27;100.00;101125.34;5200086;28;20111;-49
2023/07/11 01:10:33;;;;;;;1.58;1.30;;;19.80;99.90;;;20.26;100.00;101120.06;5200051;28;20052;-50
2023/07/11 01:13:11;;;;;;;2.35;1.40;;;19.80;99.90;;;20.22;100.00;101119.22;5199923;28;20083;-49
2023/07/11 01:15:43;;;;;;;1.98;1.20;;;19.80;99.90;;;20.22;100.00;101113.91;5201767;28;20048;-49
2023/07/11 01:18:16;;;;;;;2.83;1.50;;;19.80;99.90;;;20.21;100.00;101116.53;5201193;28;20120;-49
2023/07/11 01:20:48;;;;;;;2.45;1.45;;;19.70;99.90;;;20.19;100.00;101116.53;5200172;28;20410;-49
2023/07/11 01:23:24;;;;;;;2.63;1.60;;;19.70;99.90;;;20.16;100.00;101107.72;5200254;28;20073;-49
2023/07/11 01:26:01;;;;;;;2.58;1.60;;;19.70;99.90;;;20.16;100.00;101108.63;5200047;28;20053;-49
2023/07/11 01:28:34;;;;;;;2.72;1.50;;;19.70;99.90;;;20.16;100.00;101107.72;5200515;28;20049;-49
2023/07/11 01:31:07;;;;;;;2.67;1.70;;;19.70;99.90;;;20.13;100.00;101105.94;5200141;28;20148;-49
2023/07/11 01:33:40;;;;;;;3.55;1.55;;;19.70;99.90;;;20.12;100.00;101098.91;5200158;28;20057;-49
2023/07/11 01:36:13;;;;;;;2.85;1.60;;;19.70;99.90;;;20.10;100.00;101103.31;5199939;28;20050;-49
2023/07/11 01:38:46;;;;;;;2.22;1.50;;;19.60;99.90;;;20.10;100.00;101099.78;5199980;28;20503;-49
2023/07/11 01:41:19;;;;;;;2.55;1.70;;;19.60;99.90;;;20.06;100.00;101085.66;5201005;28;20045;-49
2023/07/11 01:43:51;;;;;;;2.55;1.60;;;19.60;99.90;;;20.03;100.00;101093.63;5200031;28;20396;-48
2023/07/11 01:46:24;;;;;;;3.17;1.45;;;19.60;99.90;;;19.97;100.00;101091.84;5199754;28;20048;-48
2023/07/11 01:48:56;;;;;;;2.50;1.80;;;19.60;99.90;;;19.93;100.00;101089.19;5199705;28;20054;-48
2023/07/11 01:51:29;;;;;;;3.15;1.60;;;19.50;99.90;;;19.91;100.00;101088.31;5199694;28;20045;-49
2023/07/11 01:54:02;;;;;;;2.45;1.58;;;19.50;99.90;;;19.84;100.00;101089.19;5199855;28;20050;-49
2023/07/11 01:56:35;;;;;;;1.95;1.65;;;19.40;99.90;;;19.77;100.00;101083.88;5201762;28;20470;-49
2023/07/11 01:59:08;;;;;;;3.60;1.85;;;19.30;99.90;;;19.74;100.00;101083.84;5203848;28;20042;-49
2023/07/11 02:01:41;;;;;;;2.65;1.50;;;19.30;99.90;;;19.68;100.00;101083.84;5203922;28;20041;-48
2023/07/11 02:04:21;;;;;;;2.67;1.50;;;19.30;99.90;;;19.65;100.00;101083.84;5203538;28;20069;-49
2023/07/11 02:06:54;;;;;;;3.00;1.60;;;19.20;99.90;;;19.60;100.00;101080.31;5203581;28;20057;-48
2023/07/11 02:09:28;;;;;;;3.70;1.70;;;19.20;99.90;;;19.56;100.00;101075.88;5203333;28;20092;-48
2023/07/11 02:12:00;;;;;;;2.65;1.70;;;19.10;99.90;;;19.54;100.00;101090.84;5203013;28;20419;-48
2023/07/11 02:14:36;;;;;;;2.67;1.50;;;19.10;99.90;;;19.51;100.00;101069.69;5203408;28;20045;-48
2023/07/11 02:17:09;;;;;;;2.05;1.50;;;19.10;99.90;;;19.47;100.00;101078.47;5204293;28;20041;-48
2023/07/11 02:19:42;;;;;;;2.83;1.70;;;19.10;99.90;;;19.46;100.00;101076.72;5203346;28;20041;-48
2023/07/11 02:22:14;;;;;;;2.47;1.60;;;19.00;99.90;;;19.45;100.00;101080.25;5203114;28;20050;-49
2023/07/11 02:24:48;;;;;;;2.10;1.63;;;19.00;99.90;;;19.41;100.00;101073.16;5203513;28;20050;-49
2023/07/11 02:27:21;;;;;;;2.70;1.60;;;19.00;99.90;;;19.39;100.00;101064.34;5203402;28;20058;-49
2023/07/11 02:29:53;;;;;;;2.05;1.40;;;19.00;99.90;;;19.37;100.00;101074.06;5202928;28;20049;-49
2023/07/11 02:32:26;;;;;;;3.28;1.92;;;18.90;99.90;;;19.35;100.00;101065.22;5202877;28;20045;-48
2023/07/11 02:34:58;;;;;;;1.63;1.30;;;18.90;99.90;;;19.37;100.00;101063.47;5203145;28;20364;-49
2023/07/11 02:37:31;;;;;;;2.53;1.52;;;18.90;99.90;;;19.33;100.00;101059.94;5202640;28;20511;-49
2023/07/11 02:40:06;;;;;;;2.58;1.50;;;18.90;99.90;;;19.30;100.00;101061.66;5202215;28;20054;-49
2023/07/11 02:42:39;;;;;;;2.83;1.65;;;18.90;99.90;;;19.27;100.00;101059.91;5203129;28;20037;-49
2023/07/11 02:45:12;;;;;;;4.22;1.63;;;18.80;99.90;;;19.23;100.00;101059.03;5202911;28;20058;-49
2023/07/11 02:47:44;;;;;;;4.03;1.80;;;18.80;99.90;;;19.20;100.00;101056.38;5202744;28;20072;-49
2023/07/11 02:50:17;;;;;;;2.80;1.48;;;18.80;99.90;;;19.18;100.00;101055.50;5202508;28;20049;-49
2023/07/11 02:52:50;;;;;;;2.65;1.65;;;18.80;99.90;;;19.16;100.00;101051.94;5202655;28;20061;-49
2023/07/11 02:55:23;;;;;;;2.40;1.48;;;18.70;99.90;;;19.15;100.00;101049.28;5202661;28;20510;-48
2023/07/11 02:57:56;;;;;;;4.40;1.77;;;18.70;99.90;;;19.13;100.00;101046.66;5203270;28;20053;-49
2023/07/11 03:00:28;;;;;;;2.90;1.73;;;18.70;99.90;;;19.12;100.00;101057.22;5203611;28;20077;-48
2023/07/11 03:03:01;;;;;;;3.05;1.70;;;18.70;99.90;;;19.10;100.00;101046.63;5202255;28;20075;-49
2023/07/11 03:05:33;;;;;;;2.03;1.50;;;18.70;99.90;;;19.09;100.00;101039.56;5202775;28;20045;-49
2023/07/11 03:08:06;;;;;;;2.17;1.73;;;18.70;99.90;;;19.08;100.00;101032.53;5201580;28;20069;-49
2023/07/11 03:10:40;;;;;;;2.97;1.90;;;18.70;99.90;;;19.10;100.00;101033.41;5202147;28;20045;-49
2023/07/11 03:13:15;;;;;;;1.95;1.48;;;18.70;99.90;;;19.10;100.00;101038.69;5202262;28;20052;-48
2023/07/11 03:15:48;;;;;;;1.92;1.50;;;18.70;99.90;;;19.09;100.00;101034.28;5202607;28;20529;-48
2023/07/11 03:18:20;;;;;;;2.50;1.40;;;18.70;99.90;;;19.09;100.00;101029.00;5202400;28;20064;-49
2023/07/11 03:20:53;;;;;;;2.17;1.45;;;18.70;99.90;;;19.11;100.00;101034.31;5202265;28;20045;-48
2023/07/11 03:23:25;;;;;;;2.67;1.33;;;18.60;99.90;;;19.11;100.00;101034.31;5202108;28;20057;-49
2023/07/11 03:25:59;;;;;;;1.95;1.58;;;18.70;99.90;;;19.08;100.00;101027.25;5202614;28;20046;-48
2023/07/11 03:28:31;;;;;;;2.53;1.60;;;18.70;99.90;;;19.07;100.00;101027.25;5201978;28;20045;-49
2023/07/11 03:31:04;;;;;;;2.85;1.67;;;18.70;99.90;;;19.03;100.00;101025.47;5201659;28;20084;-50
2023/07/11 03:33:36;;;;;;;1.92;1.50;;;18.60;99.90;;;19.01;100.00;101029.88;5201964;28;20407;-49
2023/07/11 03:36:08;;;;;;;3.08;1.70;;;18.60;99.90;;;18.96;100.00;101029.84;5201701;28;20300;-49
2023/07/11 03:38:41;;;;;;;2.22;1.55;;;18.60;99.90;;;18.94;100.00;101029.84;5201233;28;20068;-49
2023/07/11 03:41:15;;;;;;;2.90;1.95;;;18.50;99.90;;;18.90;100.00;101027.16;5201369;28;20096;-49
2023/07/11 03:43:48;;;;;;;2.97;1.60;;;18.50;99.90;;;18.88;100.00;101035.09;5201678;28;20045;-49
2023/07/11 03:46:20;;;;;;;3.05;1.85;;;18.50;99.90;;;18.85;100.00;101024.53;5201678;28;20419;-48
2023/07/11 03:48:54;;;;;;;3.67;1.85;;;18.50;99.90;;;18.84;100.00;101022.72;5201665;28;20063;-48
2023/07/11 03:51:30;;;;;;;2.03;1.45;;;18.40;99.90;;;18.82;100.00;101021.84;5201145;28;20075;-49
2023/07/11 03:54:03;;;;;;;2.38;1.70;;;18.40;99.90;;;18.82;100.00;101026.25;5201553;28;20050;-49
2023/07/11 03:56:36;;;;;;;3.65;1.83;;;18.40;99.90;;;18.82;100.00;101026.25;5201735;28;20041;-49
2023/07/11 03:59:09;;;;;;;2.97;1.80;;;18.40;99.90;;;18.81;100.00;101021.84;5200964;28;20053;-48
2023/07/11 04:01:41;;;;;;;2.72;1.50;;;18.40;99.90;;;18.80;100.00;101015.69;5201430;28;20119;-49
2023/07/11 04:04:14;;;;;;;2.65;1.77;;;18.40;99.90;;;18.80;100.00;101017.47;5201414;28;20410;-48
2023/07/11 04:06:47;;;;;;;5.07;1.90;;;18.40;99.90;;;18.79;100.00;101008.66;5201370;28;20050;-48
2023/07/11 04:09:19;;;;;;;2.53;1.70;;;18.40;99.90;;;18.79;100.00;101006.00;5200618;28;20056;-48
2023/07/11 04:11:53;;;;;;;2.30;1.88;;;18.40;99.90;;;18.80;100.00;101004.25;5201114;28;20049;-49
2023/07/11 04:14:25;;;;;;;1.73;1.40;;;18.40;99.90;;;18.82;100.00;101010.41;5201385;28;20057;-49
2023/07/11 04:16:58;;;;;;;2.42;1.77;;;18.40;99.90;;;18.83;100.00;101004.25;5201604;28;20050;-49
2023/07/11 04:19:30;;;;;;;2.67;1.67;;;18.40;99.90;;;18.84;100.00;101011.28;5200285;28;20064;-48
2023/07/11 04:22:03;;;;;;;2.95;1.58;;;18.50;99.90;;;18.85;100.00;101005.16;5201297;28;20136;-48
2023/07/11 04:24:35;;;;;;;3.20;1.70;;;18.40;99.90;;;18.89;100.00;101010.44;5201429;28;20045;-49
2023/07/11 04:27:09;;;;;;;2.38;1.55;;;18.50;99.90;;;18.93;100.00;101011.34;5201044;28;20053;-48
2023/07/11 04:29:42;;;;;;;3.10;1.80;;;18.50;99.90;;;18.96;100.00;101006.06;5201199;28;20145;-49
2023/07/11 04:32:14;;;;;;;2.97;1.80;;;18.50;99.90;;;18.98;100.00;101013.13;5200951;28;20049;-48
2023/07/11 04:34:47;;;;;;;2.42;1.70;;;18.60;99.90;;;19.02;100.00;101006.09;5200785;28;20128;-49
2023/07/11 04:37:19;;;;;;;2.63;1.80;;;18.60;99.90;;;19.06;100.00;100991.16;5200327;28;20494;-49
2023/07/11 04:39:52;;;;;;;3.60;1.80;;;18.60;99.90;;;19.12;100.00;100992.03;5200584;28;20045;-50
2023/07/11 04:42:26;;;;;;;2.42;1.70;;;18.70;99.90;;;19.22;100.00;100998.22;5200558;28;20152;-49
2023/07/11 04:44:58;;;;;;;3.33;1.77;;;18.80;99.90;;;19.29;100.00;100992.06;5200945;28;20053;-49
2023/07/11 04:47:34;;;;;;;2.33;1.73;;;18.80;99.90;;;19.38;100.00;100993.88;5201883;28;20037;-49
2023/07/11 04:50:07;;;;;;;2.13;1.70;;;18.90;99.90;;;19.45;100.00;100991.25;5200766;28;20045;-49
2023/07/11 04:52:40;;;;;;;2.88;1.67;;;19.00;99.90;;;19.56;100.00;100996.56;5192831;28;20045;-49
2023/07/11 04:55:13;;;;;;;3.40;1.80;;;19.10;99.90;;;19.70;100.00;100989.53;5200618;28;20127;-49
2023/07/11 04:57:47;;;;;;;6.57;2.10;;;19.20;99.90;;;19.97;100.00;100985.13;5200402;28;20053;-49
2023/07/11 05:00:20;;;;;;;3.80;2.20;;;19.40;99.90;;;20.29;100.00;100988.63;5200207;28;20482;-48
2023/07/11 05:02:52;;;;;;;4.38;2.00;;;19.70;99.90;;;20.69;100.00;100983.22;5200938;28;20145;-50
2023/07/11 05:05:25;;;;;;;4.30;1.80;;;20.00;99.90;;;21.14;100.00;100981.25;5200553;28;20045;-49
2023/07/11 05:07:57;;;;;;;3.63;2.10;;;20.50;99.90;;;21.59;100.00;100981.88;5200259;28;20510;-49
2023/07/11 05:10:30;;;;;;;2.47;1.80;;;20.90;99.90;;;21.98;100.00;100983.34;5199911;28;20164;-49
2023/07/11 05:13:04;;;;;;;5.22;2.00;;;21.30;99.90;;;22.43;100.00;100986.44;5200807;28;20053;-49
2023/07/11 05:15:36;;;;;;;5.05;1.90;;;21.60;99.90;;;22.76;100.00;100985.19;5200684;28;20050;-49
2023/07/11 05:18:08;;;;;;;4.18;1.83;;;22.00;99.90;;;23.07;98.09;100979.50;5200652;28;20064;-49
2023/07/11 05:20:41;;;;;;;3.83;1.83;;;22.30;99.90;;;23.35;96.05;100980.00;5200190;28;20121;-49
2023/07/11 05:23:13;;;;;;;2.47;1.45;;;22.60;99.90;;;23.61;94.23;100975.19;5200070;28;20045;-49
2023/07/11 05:25:46;;;;;;;3.30;1.50;;;22.80;99.90;;;23.89;92.86;100978.25;5200408;28;20045;-49
2023/07/11 05:28:19;;;;;;;3.97;1.95;;;23.10;99.90;;;24.07;91.41;100969.94;5199957;28;20411;-49
2023/07/11 05:30:52;;;;;;;6.32;1.58;;;23.30;99.90;;;24.12;90.68;100963.66;5200584;28;20051;-49
2023/07/11 05:33:25;;;;;;;4.05;1.70;;;23.40;99.90;;;24.15;90.53;100968.94;5203957;28;20053;-49
2023/07/11 05:36:31;;;;;;;3.72;2.10;;;23.50;99.70;;;24.38;89.68;100961.41;5204113;28;20049;-49
2023/07/11 05:39:06;;;;;;;3.55;1.70;;;23.60;99.30;;;24.59;88.85;100954.78;5204045;28;20136;-49
2023/07/11 05:41:44;;;;;;;3.80;1.67;;;23.80;99.00;;;24.78;87.73;100958.81;5203585;28;20495;-49
2023/07/11 05:44:18;;;;;;;2.88;1.75;;;24.00;98.50;;;25.05;86.77;100962.72;5204150;28;20095;-50
2023/07/11 05:46:50;;;;;;;5.10;2.10;;;24.20;98.10;;;25.20;85.37;100955.28;5204319;28;20053;-49
2023/07/11 05:49:23;;;;;;;5.00;1.80;;;24.40;97.50;;;25.30;84.37;100955.03;5203630;28;20531;-50
2023/07/11 05:51:58;;;;;;;4.07;1.90;;;24.50;96.90;;;25.38;84.18;100957.50;5203593;28;20408;-49
2023/07/11 05:54:31;;;;;;;4.28;2.05;;;24.60;96.70;;;25.51;83.55;100958.09;5203885;28;20056;-49
2023/07/11 05:57:03;;;;;;;2.92;1.70;;;24.70;96.40;;;25.66;83.70;100955.91;5203779;28;20541;-50
2023/07/11 05:59:40;;;;;;;2.50;1.52;;;24.80;96.30;;;25.64;82.95;100952.41;5203307;28;20052;-50
2023/07/11 06:02:13;;;;;;;4.60;1.88;;;24.90;95.90;;;25.58;82.55;100947.22;5203553;28;20061;-50
2023/07/11 06:04:45;;;;;;;3.78;1.90;;;24.90;95.50;;;25.71;82.32;100938.00;5195870;28;20068;-50
2023/07/11 06:07:17;;;;;;;3.60;1.65;;;25.00;95.40;;;25.95;82.14;100938.28;5203546;28;20052;-50
2023/07/11 06:09:53;;;;;;;4.55;1.80;;;25.10;95.30;;;26.22;81.39;100934.03;5203571;28;20057;-49
2023/07/11 06:12:26;;;;;;;3.65;1.73;;;25.40;95.00;;;26.44;80.44;100931.66;5203927;28;20056;-49
2023/07/11 06:15:00;;;;;;;3.95;1.73;;;25.60;94.50;;;26.60;79.11;100932.94;5203841;28;20060;-49
2023/07/11 06:17:32;;;;;;;2.67;1.40;;;25.80;93.90;;;26.60;79.52;100922.25;5203520;28;20052;-49
2023/07/11 06:20:09;;;;;;;2.15;1.38;;;25.80;93.70;;;26.65;79.00;100914.97;5203222;28;20050;-52
2023/07/11 06:22:41;;;;;;;4.30;1.98;;;25.90;93.40;;;26.67;78.89;100923.84;5204661;28;20458;-49
2023/07/11 06:25:13;;;;;;;4.43;1.98;;;25.90;93.10;;;26.73;79.01;100922.75;5202817;28;20068;-49
2023/07/11 06:27:49;;;;;;;2.58;1.70;;;26.00;93.20;;;26.75;79.06;100923.63;5203142;28;20049;-49
2023/07/11 06:30:23;;;;;;;4.20;1.90;;;26.00;93.10;;;26.69;78.59;100916.66;5202839;28;20045;-48
2023/07/11 06:32:55;;;;;;;3.30;1.55;;;26.00;92.70;;;26.51;79.22;100911.84;5203126;28;20095;-47
2023/07/11 06:35:28;;;;;;;3.47;1.65;;;25.90;92.70;;;26.32;78.67;100924.81;5202781;28;20041;-47
2023/07/11 06:38:00;;;;;;;3.38;1.70;;;25.80;92.40;;;26.15;79.64;100913.75;5202687;28;20061;-47
2023/07/11 06:40:33;;;;;;;5.03;1.83;;;25.60;92.60;;;25.98;80.08;100912.41;5202229;28;20514;-47
2023/07/11 06:43:06;;;;;;;3.25;1.42;;;25.50;92.60;;;25.89;80.57;100911.78;5202162;28;20045;-47
2023/07/11 06:45:40;;;;;;;3.78;1.80;;;25.30;92.90;;;25.85;81.31;100918.09;5210376;28;20053;-46
2023/07/11 06:48:13;;;;;;;3.03;1.75;;;25.30;93.10;;;25.83;81.51;100902.13;5222095;28;20510;-47
2023/07/11 06:50:50;;;;;;;3.30;1.40;;;25.20;93.20;;;25.87;81.68;100902.91;5223077;28;20033;-47
2023/07/11 06:53:26;;;;;;;2.58;1.60;;;25.20;93.40;;;26.01;82.30;100898.06;5219398;28;20537;-47
2023/07/11 06:55:59;;;;;;;3.15;1.50;;;25.30;93.70;;;26.16;81.53;100904.81;5217766;28;20048;-46
2023/07/11 06:58:31;;;;;;;2.10;1.50;;;25.40;93.50;;;26.26;80.86;100900.94;5222116;28;20068;-47
2023/07/11 07:01:07;;;;;;;3.35;1.65;;;25.50;93.20;;;26.35;80.26;100902.50;5222626;28;20053;-49
2023/07/11 07:03:40;;;;;;;3.05;1.75;;;25.50;93.00;;;26.38;80.29;100894.38;5221140;28;20057;-48
2023/07/11 07:06:14;;;;;;;2.60;1.70;;;25.60;93.10;;;26.44;79.78;100894.22;5222365;28;20051;-49
2023/07/11 07:08:47;;;;;;;3.38;1.70;;;25.70;92.70;;;26.54;79.33;100894.81;5220753;28;20131;-48
2023/07/11 07:11:19;;;;;;;4.75;1.85;;;25.70;92.50;;;26.64;79.45;100894.50;5222889;28;20399;-49
2023/07/11 07:13:51;;;;;;;2.35;1.80;;;25.80;92.50;;;26.80;79.22;100892.28;5215302;28;20052;-49
2023/07/11 07:16:26;;;;;;;3.83;1.80;;;25.90;92.50;;;26.94;78.43;100879.34;5222705;28;20057;-48
2023/07/11 07:19:00;;;;;;;2.88;1.60;;;26.00;92.10;;;27.06;77.64;100880.78;5220917;28;20041;-48
2023/07/11 07:21:33;;;;;;;3.80;1.67;;;26.10;91.80;;;27.21;77.40;100872.25;5218385;28;20053;-48
2023/07/11 07:24:09;;;;;;;3.17;1.42;;;26.30;91.70;;;27.38;77.12;100878.84;5221143;28;20119;-48
2023/07/11 07:26:42;;;;;;;2.72;1.42;;;26.40;91.60;;;27.56;76.69;100878.22;5220778;28;20094;-48
2023/07/11 07:29:14;;;;;;;3.78;1.75;;;26.60;91.40;;;27.70;76.13;100878.66;5222424;28;20143;-48
2023/07/11 07:31:48;;;;;;;2.53;1.52;;;26.70;91.20;;;27.87;75.72;100871.84;5222028;28;20037;-48
2023/07/11 07:34:20;;;;;;;3.25;1.60;;;26.80;90.90;;;28.05;75.72;100872.06;5222181;28;20068;-47
2023/07/11 07:36:52;;;;;;;2.92;1.45;;;27.00;91.00;;;28.18;74.57;100861.75;5222304;28;20037;-48
2023/07/11 07:39:25;;;;;;;2.80;1.52;;;27.10;90.50;;;28.37;73.75;100864.66;5222418;28;20049;-49
2023/07/11 07:41:57;;;;;;;2.72;1.75;;;27.30;90.00;;;28.57;73.19;100858.53;5222581;28;20041;-48
2023/07/11 07:44:29;;;;;;;1.92;1.40;;;27.50;89.60;;;28.75;72.39;100852.44;5222173;28;20063;-48
2023/07/11 07:47:04;;;;;;;2.70;1.33;;;27.60;88.90;;;28.95;71.87;100853.47;5222532;28;20056;-47
2023/07/11 07:49:36;;;;;;;3.60;1.60;;;27.80;88.40;;;29.18;71.48;100850.72;5221606;28;20053;-47
2023/07/11 07:52:09;;;;;;;3.10;1.70;;;28.00;87.70;;;29.38;70.94;100853.44;5220768;28;20115;-47
2023/07/11 07:54:41;;;;;;;3.00;1.48;;;28.10;87.10;;;29.58;70.23;100851.75;5221664;28;20056;-48
2023/07/11 07:57:13;;;;;;;2.65;1.63;;;28.30;86.60;;;29.77;69.86;100850.03;5218597;28;20456;-48
2023/07/11 07:59:46;;;;;;;2.53;1.63;;;28.40;86.00;;;29.98;70.01;100845.50;5221176;28;20048;-49
2023/07/11 08:02:19;;;;;;;2.92;1.55;;;28.60;85.80;;;30.26;68.66;100842.47;5219961;28;20049;-48
2023/07/11 08:04:52;;;;;;;2.42;1.60;;;28.80;85.00;;;30.51;68.14;100845.75;5221558;28;20045;-49
2023/07/11 08:07:27;;;;;;;3.05;1.60;;;29.00;84.00;;;30.84;66.68;100837.03;5223246;28;20057;-48
2023/07/11 08:10:02;;;;;;;1.55;1.25;;;29.20;82.80;;;31.20;65.81;100841.56;5221062;28;20033;-49
2023/07/11 08:12:34;;;;;;;2.90;1.52;;;29.50;82.00;;;31.57;63.78;100830.69;5234976;28;20045;-49
2023/07/11 08:15:09;;;;;;;2.45;1.40;;;29.70;80.30;;;31.98;63.14;100835.72;5219062;28;20056;-49
2023/07/11 08:17:45;;;;;;;2.80;1.40;;;29.90;79.50;;;32.44;61.82;100819.75;5224062;28;20398;-50
2023/07/11 08:20:18;;;;;;;3.92;1.23;;;30.20;78.30;;;33.02;61.04;100819.16;5220415;28;20517;-49
2023/07/11 08:22:50;;;;;;;2.95;1.42;;;30.60;77.90;;;33.58;59.43;100823.06;5220984;28;20509;-50
2023/07/11 08:25:23;;;;;;;3.55;1.52;;;31.00;76.40;;;34.06;58.06;100812.03;5221560;28;20595;-50
2023/07/11 08:27:55;;;;;;;4.07;1.60;;;31.20;75.20;;;34.66;56.68;100818.06;5215491;28;20055;-50
2023/07/11 08:30:28;;;;;;;3.78;1.55;;;31.60;74.40;;;35.29;55.29;100822.91;5222626;28;20517;-50
2023/07/11 08:33:02;;;;;;;1.98;1.40;;;31.90;73.00;;;35.82;53.00;100821.06;5221310;28;20049;-50
2023/07/11 08:35:34;;;;;;;1.98;1.40;;;32.20;71.10;;;36.41;51.78;100812.38;5221091;28;20045;-51
2023/07/11 08:38:11;;;;;;;2.53;1.30;;;32.60;69.70;;;37.25;50.55;100822.38;5221191;28;20387;-51
2023/07/11 08:40:46;;;;;;;2.20;1.30;;;33.00;69.20;;;38.27;48.78;100810.75;5220500;28;20049;-51
2023/07/11 08:43:24;;;;;;;2.25;1.23;;;33.60;67.70;;;39.29;47.64;100815.00;5221121;28;20418;-51
2023/07/11 08:46:05;;;;;;;2.33;1.30;;;34.30;66.60;;;40.09;45.62;100809.81;5221052;28;20052;-50
2023/07/11 08:48:44;;;;;;;3.80;1.40;;;35.00;63.80;;;40.37;43.68;100807.34;5221058;28;20132;-51
2023/07/11 08:51:25;;;;;;;2.97;1.60;;;35.60;61.10;;;40.99;42.48;100806.22;5220911;28;20041;-49
2023/07/11 08:54:03;;;;;;;3.45;1.60;;;36.40;59.10;;;41.25;42.36;100802.91;5217554;28;20046;-51
2023/07/11 08:56:39;;;;;;;3.22;1.60;;;36.80;58.30;;;41.72;42.02;100798.38;5219915;28;20049;-50
2023/07/11 08:59:17;;;;;;;2.47;1.35;;;37.30;57.00;;;42.23;41.95;100792.47;5219759;28;20049;-50
2023/07/11 09:01:55;;;;;;;1.92;1.30;;;37.80;56.70;;;42.73;40.95;100791.22;5219852;28;20044;-51
2023/07/11 09:04:31;;;;;;;4.15;1.60;;;38.20;55.60;;;42.41;39.48;100783.47;5218813;28;20252;-49
2023/07/11 09:07:07;;;;;;;2.40;1.40;;;38.10;53.00;;;42.46;39.45;100786.59;5213268;28;20072;-51
2023/07/11 09:09:41;;;;;;;2.28;1.33;;;38.20;53.40;;;42.24;40.09;100777.75;5220307;28;20048;-51
2023/07/11 09:12:25;;;;;;;2.80;1.63;;;38.20;53.40;;;41.81;39.65;100769.31;5220946;28;20033;-50
2023/07/11 09:15:13;;;;;;;4.15;1.70;;;38.10;52.40;;;41.84;39.66;100769.84;5219708;28;20045;-50
2023/07/11 09:17:59;;;;;;;3.03;1.52;;;38.10;52.40;;;42.01;40.28;100769.06;5218040;28;20060;-50
2023/07/11 09:20:44;;;;;;;3.00;1.60;;;38.10;53.00;;;42.42;40.19;100769.59;5220601;28;20045;-51
2023/07/11 09:23:41;;;;;;;2.75;1.60;;;38.30;53.20;;;42.68;39.60;100764.25;5220739;28;20041;-51
2023/07/11 09:26:25;;;;;;;2.60;1.40;;;38.60;52.80;;;42.52;39.32;100766.81;5214034;28;20048;-51
2023/07/11 09:29:04;;;;;;;2.95;1.60;;;38.60;52.00;;;42.15;37.76;100759.53;5220467;28;20045;-51
2023/07/11 09:31:40;;;;;;;;;;;38.50;50.30;;;41.61;37.77;100755.66;5219855;28;20033;-50
2023/07/11 09:34:20;;;;;;;3.72;1.45;;;38.20;49.80;;;41.12;38.69;100763.03;5221065;28;19921;-51
2023/07/11 09:36:57;;;;;;;3.30;1.38;;;38.10;50.40;;;40.38;39.13;100746.25;5220039;28;20147;-50
2023/07/11 09:39:36;;;;;;;3.40;1.40;;;37.80;50.50;;;39.57;41.31;100743.41;5220359;28;20041;-50
2023/07/11 09:42:14;;;;;;;;;;;37.40;51.30;;;38.80;43.00;100734.69;5213504;28;20045;-49
2023/07/11 09:44:59;;;;;;;2.85;1.50;;;37.00;52.60;;;38.10;43.53;100729.59;5219877;28;20390;-51
2023/07/11 09:47:33;;;;;;;3.35;1.50;;;36.50;52.70;;;37.46;44.13;100719.31;5220763;28;20060;-51
2023/07/11 09:50:28;;;;;;;5.00;1.70;;;36.00;53.10;;;36.86;45.00;100728.47;5213269;28;20495;-51
2023/07/11 09:53:03;;;;;;;3.03;1.70;;;35.50;53.80;;;36.48;45.60;100715.06;5220999;28;20041;-51
2023/07/11 09:55:36;;;;;;;2.40;1.50;;;35.10;54.20;;;36.20;46.70;100719.81;5220706;28;20422;-51
2023/07/11 09:58:15;;;;;;;2.22;1.40;;;34.90;55.10;;;36.02;47.30;100713.00;5220775;28;20510;-51
2023/07/11 10:00:51;;;;;;;2.15;1.50;;;34.70;55.50;;;35.80;46.94;100706.41;5220889;28;20513;-51
2023/07/11 10:03:28;;;;;;;2.88;1.70;;;34.40;55.10;;;35.61;46.98;100697.88;5220086;28;20044;-51
2023/07/11 10:06:00;;;;;;;3.13;1.98;;;34.30;55.30;;;35.29;46.07;100694.69;5220034;28;20060;-51
2023/07/11 10:08:43;;;;;;;4.15;1.90;;;34.10;54.60;;;35.18;47.58;100695.44;5220519;28;20056;-51
2023/07/11 10:11:16;;;;;;;3.03;1.70;;;33.90;55.60;;;35.19;47.75;100691.75;5218155;28;20106;-51
2023/07/11 10:13:48;;;;;;;2.17;1.50;;;33.90;56.10;;;35.25;46.97;100695.88;5217662;28;20045;-50
2023/07/11 10:16:21;;;;;;;1.95;1.30;;;33.90;55.40;;;35.22;46.76;100679.84;5220875;28;20049;-51
2023/07/11 10:18:54;;;;;;;2.75;1.52;;;33.90;55.00;;;35.18;46.71;100679.19;5221539;28;20060;-50
2023/07/11 10:21:28;;;;;;;2.53;1.70;;;33.80;55.20;;;35.18;46.55;100673.75;5223573;28;20122;-51
2023/07/11 10:24:02;;;;;;;3.42;1.60;;;33.80;55.00;;;35.18;45.79;100676.47;5223337;28;20502;-51
2023/07/11 10:26:39;;;;;;;3.22;1.70;;;33.80;54.40;;;35.19;45.72;100667.38;5224278;28;20053;-51
2023/07/11 10:29:18;;;;;;;3.08;1.85;;;33.80;54.50;;;35.30;45.91;100672.91;5224214;28;20136;-51
2023/07/11 10:31:57;;;;;;;3.13;1.85;;;33.90;54.80;;;35.31;45.54;100666.50;5223320;28;20049;-51
2023/07/11 10:34:38;;;;;;;2.63;1.70;;;33.90;54.20;;;35.34;47.35;100663.59;5224314;28;20068;-51
2023/07/11 10:37:19;;;;;;;3.38;2.08;;;33.90;55.60;;;35.39;46.91;100654.25;5223958;28;20044;-51
2023/07/11 10:39:58;;;;;;;2.95;1.80;;;34.00;55.40;;;35.47;46.98;100657.31;5223894;28;20060;-51